createdAt,value
2019-01-08T00:00:22.263Z,98.85
2019-01-08T00:02:51.582Z,99.40
2019-01-08T00:05:20.806Z,98.72
2019-01-08T00:07:50.024Z,95.40
2019-01-08T00:10:19.395Z,96.25
2019-01-08T00:12:48.675Z,98.60
2019-01-08T00:15:18.046Z,92.20
2019-01-08T00:17:47.239Z,96.50
2019-01-08T00:20:16.469Z,92.00
2019-01-08T00:22:45.755Z,91.67
2019-01-08T00:25:15.028Z,94.13
2019-01-08T00:27:44.255Z,98.42
2019-01-08T00:30:13.538Z,98.58
2019-01-08T00:32:42.790Z,96.15
2019-01-08T00:35:12.073Z,97.78
2019-01-08T00:37:41.519Z,95.40
2019-01-08T00:40:11.895Z,99.25
2019-01-08T00:42:41.083Z,102.80
2019-01-08T00:45:10.499Z,106.70
2019-01-08T00:47:40.795Z,106.27
2019-01-08T00:50:10.244Z,104.38
2019-01-08T00:52:39.507Z,101.60
2019-01-08T00:55:08.846Z,99.83
2019-01-08T00:57:38.210Z,100.30
2019-01-08T01:00:08.190Z,104.85
2019-01-08T01:02:37.509Z,111.47
2019-01-08T01:05:06.747Z,105.95
2019-01-08T01:07:36.203Z,105.20
2019-01-08T01:10:06.167Z,112.55
2019-01-08T01:12:35.699Z,109.52
2019-01-08T01:15:05.731Z,113.83
2019-01-08T01:17:35.170Z,110.48
2019-01-08T01:20:04.920Z,111.08
2019-01-08T01:22:34.386Z,102.00
2019-01-08T01:25:03.938Z,98.30
2019-01-08T01:27:33.366Z,97.85
2019-01-08T01:30:02.808Z,93.72
2019-01-08T01:32:32.002Z,89.32
2019-01-08T01:35:01.362Z,92.57
2019-01-08T01:37:30.676Z,87.80
2019-01-08T01:40:00.163Z,91.37
2019-01-08T01:42:29.491Z,89.75
2019-01-08T01:44:58.774Z,82.92
2019-01-08T01:47:28.116Z,83.92
2019-01-08T01:49:57.518Z,89.58
2019-01-08T01:52:26.794Z,89.65
2019-01-08T01:54:56.067Z,94.58
2019-01-08T01:57:25.267Z,91.20
2019-01-08T01:59:54.545Z,89.30
2019-01-08T02:02:23.836Z,91.00
2019-01-08T02:04:54.519Z,89.83
2019-01-08T02:07:23.744Z,90.77
2019-01-08T02:09:53.200Z,84.85
2019-01-08T02:12:22.440Z,86.30
2019-01-08T02:14:51.810Z,86.10
2019-01-08T02:17:21.048Z,85.03
2019-01-08T02:19:50.366Z,87.57
2019-01-08T02:22:19.600Z,93.40
2019-01-08T02:24:48.824Z,92.05
2019-01-08T02:27:18.143Z,90.38
2019-01-08T02:29:47.499Z,91.72
2019-01-08T02:32:16.704Z,89.28
2019-01-08T02:34:45.998Z,93.65
2019-01-08T02:37:15.655Z,93.42
2019-01-08T02:39:44.952Z,98.58
2019-01-08T02:42:14.191Z,100.27
2019-01-08T02:44:43.639Z,103.53
2019-01-08T02:47:12.996Z,100.12
2019-01-08T02:49:42.243Z,95.42
2019-01-08T02:52:11.570Z,103.87
2019-01-08T02:54:40.911Z,101.55
2019-01-08T02:57:10.242Z,109.12
2019-01-08T02:59:39.619Z,115.03
2019-01-08T03:02:08.919Z,123.33
2019-01-08T03:04:38.151Z,120.80
2019-01-08T03:07:07.455Z,121.82
2019-01-08T03:09:39.634Z,115.17
2019-01-08T03:12:08.918Z,120.20
2019-01-08T03:14:38.199Z,118.97
2019-01-08T03:17:07.466Z,116.70
2019-01-08T03:19:36.771Z,116.08
2019-01-08T03:22:06.122Z,116.42
2019-01-08T03:24:35.415Z,97.53
2019-01-08T03:27:04.638Z,75.25
2019-01-08T03:29:34.005Z,67.95
2019-01-08T03:32:03.200Z,60.67
2019-01-08T03:34:32.506Z,58.23
2019-01-08T03:37:01.783Z,57.62
2019-01-08T03:39:31.045Z,60.28
2019-01-08T03:42:00.250Z,65.92
2019-01-08T03:44:29.543Z,68.02
2019-01-08T03:46:58.863Z,75.65
2019-01-08T03:49:28.107Z,82.90
2019-01-08T03:51:57.391Z,77.87
2019-01-08T03:54:26.646Z,80.10
2019-01-08T03:56:55.903Z,70.30
2019-01-08T03:59:25.212Z,63.45
2019-01-08T04:01:54.424Z,68.25
2019-01-08T04:04:23.733Z,61.10
2019-01-08T04:06:53.193Z,72.75
2019-01-08T04:09:22.463Z,72.40
2019-01-08T04:11:51.742Z,70.92
2019-01-08T04:14:20.984Z,79.90
2019-01-08T04:16:50.231Z,80.40
2019-01-08T04:19:19.523Z,85.28
2019-01-08T04:21:48.747Z,94.30
2019-01-08T04:24:17.980Z,91.02
2019-01-08T04:26:47.178Z,95.90
2019-01-08T04:29:16.529Z,97.70
2019-01-08T04:31:45.799Z,103.67
2019-01-08T04:34:15.144Z,100.82
2019-01-08T04:36:44.442Z,98.00
2019-01-08T04:39:13.711Z,103.38
2019-01-08T04:41:43.015Z,115.37
2019-01-08T04:44:12.303Z,127.95
2019-01-08T04:46:43.582Z,121.10
2019-01-08T04:49:12.789Z,111.15
2019-01-08T04:51:42.183Z,97.50
2019-01-08T04:54:11.474Z,100.97
2019-01-08T04:56:40.860Z,105.80
2019-01-08T04:59:10.156Z,106.10
2019-01-08T05:01:39.431Z,106.00
2019-01-08T05:04:08.735Z,107.77
2019-01-08T05:06:38.063Z,106.45
2019-01-08T05:09:07.458Z,105.03
2019-01-08T05:11:36.771Z,114.67
2019-01-08T05:14:06.035Z,122.30
2019-01-08T05:16:35.342Z,116.60
2019-01-08T05:19:04.603Z,118.17
2019-01-08T05:21:33.937Z,115.82
2019-01-08T05:24:03.229Z,115.90
2019-01-08T05:26:32.582Z,110.35
2019-01-08T05:29:01.982Z,111.50
2019-01-08T05:31:31.263Z,108.30
2019-01-08T05:34:00.486Z,107.40
2019-01-08T05:36:29.751Z,107.90
2019-01-08T05:38:58.991Z,112.83
2019-01-08T05:41:28.286Z,111.97
2019-01-08T05:43:57.558Z,125.27
2019-01-08T05:46:26.859Z,132.33
2019-01-08T05:48:56.098Z,128.40
2019-01-08T05:51:25.471Z,126.70
2019-01-08T05:53:54.803Z,125.90
2019-01-08T05:56:24.106Z,121.45
2019-01-08T05:58:53.292Z,124.53
2019-01-08T06:01:22.710Z,120.60
2019-01-08T06:03:51.968Z,123.27
2019-01-08T06:06:21.183Z,121.73
2019-01-08T06:08:50.451Z,114.67
2019-01-08T06:11:19.666Z,117.63
2019-01-08T06:13:49.047Z,121.03
2019-01-08T06:16:18.272Z,109.80
2019-01-08T06:18:47.696Z,102.70
2019-01-08T06:21:16.991Z,81.15
2019-01-08T06:23:46.266Z,65.15
2019-01-08T06:26:15.491Z,65.05
2019-01-08T06:28:44.751Z,68.47
2019-01-08T06:31:14.066Z,67.05
2019-01-08T06:33:43.326Z,59.37
2019-01-08T06:36:12.547Z,59.00
2019-01-08T06:38:41.794Z,56.93
2019-01-08T06:41:11.168Z,53.43
2019-01-08T06:43:40.443Z,46.17
2019-01-08T06:46:09.841Z,40.07
2019-01-08T06:48:39.039Z,51.75
2019-01-08T06:51:08.248Z,64.53
2019-01-08T06:53:37.464Z,76.20
2019-01-08T06:56:06.696Z,77.43
2019-01-08T06:58:35.985Z,80.30
2019-01-08T07:01:05.216Z,70.17
2019-01-08T07:03:34.554Z,71.67
2019-01-08T07:06:03.831Z,80.17
2019-01-08T07:08:33.166Z,88.27
2019-01-08T07:11:02.363Z,72.30
2019-01-08T07:13:31.619Z,52.90
2019-01-08T07:16:00.914Z,69.30
2019-01-08T07:18:30.095Z,77.17
2019-01-08T07:20:59.391Z,84.13
2019-01-08T07:23:28.704Z,80.23
2019-01-08T07:25:58.086Z,86.07
2019-01-08T07:28:29.245Z,94.87
2019-01-08T07:30:58.424Z,97.10
2019-01-08T07:33:27.822Z,94.53
2019-01-08T07:35:57.102Z,95.97
2019-01-08T07:38:26.346Z,46.87
2019-01-08T07:40:55.886Z,74.10
2019-01-08T07:43:25.097Z,48.77
2019-01-08T07:45:54.506Z,73.23
2019-01-08T07:48:23.910Z,115.43
2019-01-08T07:50:53.330Z,100.83
2019-01-08T07:53:22.772Z,96.53
2019-01-08T07:55:52.032Z,93.50
2019-01-08T07:58:21.322Z,90.77
2019-01-08T08:00:50.510Z,95.40
2019-01-08T08:03:19.794Z,109.13
2019-01-08T08:05:49.022Z,141.40
2019-01-08T08:08:18.239Z,141.23
2019-01-08T08:10:47.545Z,136.60
2019-01-08T08:13:18.080Z,140.53
2019-01-08T08:15:47.348Z,132.30
2019-01-08T08:18:16.619Z,124.97
2019-01-08T08:20:45.940Z,116.50
2019-01-08T08:23:15.142Z,115.63
2019-01-08T08:25:44.418Z,110.67
2019-01-08T08:28:13.778Z,103.53
2019-01-08T08:30:43.148Z,114.70
2019-01-08T08:33:12.863Z,110.97
2019-01-08T08:35:42.133Z,119.33
2019-01-08T08:38:11.371Z,112.57
2019-01-08T08:40:40.731Z,114.03
2019-01-08T08:43:09.991Z,114.87
2019-01-08T08:45:39.435Z,113.70
2019-01-08T08:48:08.746Z,106.77
2019-01-08T08:50:38.320Z,98.53
2019-01-08T08:53:07.682Z,90.43
2019-01-08T08:55:37.070Z,91.90
2019-01-08T08:58:06.359Z,88.63
2019-01-08T09:00:35.754Z,96.40
2019-01-08T09:03:05.072Z,94.43
2019-01-08T09:05:34.375Z,93.13
2019-01-08T09:08:03.627Z,96.37
2019-01-08T09:10:32.907Z,84.37
2019-01-08T09:13:02.306Z,87.33
2019-01-08T09:15:31.623Z,92.30
2019-01-08T09:18:00.931Z,92.70
2019-01-08T09:20:30.531Z,91.97
2019-01-08T09:23:00.018Z,88.57
2019-01-08T09:25:29.302Z,79.73
2019-01-08T09:27:58.759Z,77.07
2019-01-08T09:30:27.979Z,78.97
2019-01-08T09:32:57.373Z,75.13
2019-01-08T09:35:26.811Z,72.70
2019-01-08T09:37:56.240Z,73.33
2019-01-08T09:40:25.527Z,76.17
2019-01-08T09:42:55.030Z,76.53
2019-01-08T09:45:24.429Z,77.77
2019-01-08T09:47:53.839Z,79.43
2019-01-08T09:50:23.219Z,79.47
2019-01-08T09:52:52.620Z,79.37
2019-01-08T09:55:22.120Z,86.87
2019-01-08T09:57:51.527Z,90.07
2019-01-08T10:00:20.814Z,90.27
2019-01-08T10:02:50.125Z,83.73
2019-01-08T10:05:19.529Z,86.67
2019-01-08T10:07:48.860Z,80.43
2019-01-08T10:10:20.251Z,77.87
2019-01-08T10:12:49.592Z,77.97
2019-01-08T10:15:18.958Z,72.60
2019-01-08T10:17:48.303Z,73.90
2019-01-08T10:20:17.590Z,64.30
2019-01-08T10:22:46.816Z,63.70
2019-01-08T10:25:16.115Z,59.50
2019-01-08T10:27:45.449Z,45.57
2019-01-08T10:30:14.683Z,40.87
2019-01-08T10:32:43.991Z,34.37
2019-01-08T10:35:13.365Z,29.90
2019-01-08T10:37:42.683Z,28.23
2019-01-08T10:40:12.055Z,26.93
2019-01-08T10:42:41.429Z,27.60
2019-01-08T10:45:10.771Z,23.77
2019-01-08T10:47:40.199Z,20.77
2019-01-08T10:50:09.704Z,22.67
2019-01-08T10:52:39.032Z,18.80
2019-01-08T10:55:08.440Z,20.47
2019-01-08T10:57:37.836Z,19.57
2019-01-08T11:00:07.955Z,17.13
2019-01-08T11:02:37.306Z,14.70
2019-01-08T11:05:07.062Z,16.77
2019-01-08T11:07:36.571Z,18.00
2019-01-08T11:10:06.087Z,16.40
2019-01-08T11:12:35.466Z,17.33
2019-01-08T11:15:05.025Z,17.10
2019-01-08T11:17:34.366Z,13.53
2019-01-08T11:20:03.840Z,16.97
2019-01-08T11:22:33.040Z,22.97
2019-01-08T11:25:02.440Z,26.87
2019-01-08T11:27:31.894Z,21.10
2019-01-08T11:30:01.328Z,15.77
2019-01-08T11:32:30.649Z,17.70
2019-01-08T11:35:00.166Z,19.33
2019-01-08T11:37:29.612Z,17.80
2019-01-08T11:39:59.026Z,19.13
2019-01-08T11:42:28.406Z,21.20
2019-01-08T11:44:57.852Z,34.77
2019-01-08T11:47:27.127Z,32.37
2019-01-08T11:49:56.362Z,20.77
2019-01-08T11:52:25.760Z,19.57
2019-01-08T11:54:55.039Z,22.33
2019-01-08T11:57:24.392Z,22.63
2019-01-08T11:59:53.751Z,19.23
2019-01-08T12:02:23.015Z,21.17
2019-01-08T12:04:52.383Z,22.07
2019-01-08T12:07:21.772Z,22.23
2019-01-08T12:09:50.952Z,25.03
2019-01-08T12:12:20.271Z,26.70
2019-01-08T12:14:49.860Z,21.83
2019-01-08T12:17:19.140Z,22.47
2019-01-08T12:19:48.554Z,20.63
2019-01-08T12:22:17.882Z,20.90
2019-01-08T12:24:47.172Z,26.37
2019-01-08T12:27:16.487Z,27.93
2019-01-08T12:29:45.768Z,29.00
2019-01-08T12:32:16.690Z,23.90
2019-01-08T12:34:46.070Z,27.73
2019-01-08T12:37:15.478Z,25.50
2019-01-08T12:39:44.832Z,24.73
2019-01-08T12:42:14.125Z,23.07
2019-01-08T12:44:43.465Z,24.50
2019-01-08T12:47:12.782Z,21.73
2019-01-08T12:49:42.154Z,22.20
2019-01-08T12:52:11.539Z,20.43
2019-01-08T12:54:40.836Z,21.07
2019-01-08T12:57:10.059Z,20.53
2019-01-08T12:59:39.359Z,22.20
2019-01-08T13:02:14.579Z,19.43
2019-01-08T13:04:39.786Z,21.13
2019-01-08T13:07:09.165Z,21.97
2019-01-08T13:09:38.351Z,23.17
2019-01-08T13:12:07.690Z,19.83
2019-01-08T13:14:37.074Z,23.87
2019-01-08T13:17:11.468Z,21.13
2019-01-08T13:19:37.510Z,20.73
2019-01-08T13:22:06.731Z,23.83
2019-01-08T13:24:35.986Z,20.37
2019-01-08T13:27:05.371Z,20.83
2019-01-08T13:29:34.663Z,20.33
2019-01-08T13:32:03.931Z,21.40
2019-01-08T13:34:33.297Z,20.33
2019-01-08T13:37:02.616Z,18.97
2019-01-08T13:39:32.005Z,21.53
2019-01-08T13:42:01.352Z,20.17
2019-01-08T13:44:30.763Z,18.27
2019-01-08T13:47:00.050Z,17.20
2019-01-08T13:49:29.503Z,16.97
2019-01-08T13:51:58.801Z,17.07
2019-01-08T13:54:28.248Z,15.47
2019-01-08T13:56:57.597Z,17.67
2019-01-08T13:59:26.900Z,17.83
2019-01-08T14:01:56.271Z,18.37
2019-01-08T14:04:25.539Z,18.17
2019-01-08T14:06:54.779Z,15.07
2019-01-08T14:09:24.062Z,19.13
2019-01-08T14:11:53.431Z,19.90
2019-01-08T14:14:22.657Z,18.87
2019-01-08T14:16:51.856Z,17.70
2019-01-08T14:19:21.105Z,18.33
2019-01-08T14:21:50.368Z,21.20
2019-01-08T14:24:19.702Z,20.53
2019-01-08T14:26:49.028Z,20.43
2019-01-08T14:29:18.371Z,22.10
2019-01-08T14:31:47.628Z,21.53
2019-01-08T14:34:16.858Z,27.40
2019-01-08T14:36:46.355Z,30.33
2019-01-08T14:39:15.599Z,31.53
2019-01-08T14:41:44.807Z,32.47
2019-01-08T14:44:14.079Z,28.60
2019-01-08T14:46:43.339Z,26.60
2019-01-08T14:49:12.595Z,28.17
2019-01-08T14:51:41.775Z,31.07
2019-01-08T14:54:10.995Z,32.03
2019-01-08T14:56:40.299Z,33.67
2019-01-08T14:59:09.666Z,34.40
2019-01-08T15:01:38.847Z,36.37
2019-01-08T15:04:08.103Z,35.20
2019-01-08T15:06:37.431Z,34.77
2019-01-08T15:09:08.124Z,34.43
2019-01-08T15:11:37.493Z,35.17
2019-01-08T15:14:06.767Z,35.40
2019-01-08T15:16:37.823Z,34.90
2019-01-08T15:19:07.188Z,36.33
2019-01-08T15:21:36.540Z,36.63
2019-01-08T15:24:05.851Z,92.90
2019-01-08T15:26:35.174Z,41.40
2019-01-08T15:29:04.355Z,35.50
2019-01-08T15:31:33.576Z,33.70
2019-01-08T15:34:02.849Z,32.57
2019-01-08T15:36:32.143Z,33.13
2019-01-08T15:39:01.363Z,33.50
2019-01-08T15:41:30.643Z,34.83
2019-01-08T15:43:59.962Z,37.70
2019-01-08T15:46:29.151Z,33.47
2019-01-08T15:48:58.371Z,38.53
2019-01-08T15:51:27.609Z,40.43
2019-01-08T15:53:58.114Z,45.20
2019-01-08T15:56:27.470Z,46.20
2019-01-08T15:58:56.812Z,43.27
2019-01-08T16:01:26.107Z,41.10
2019-01-08T16:03:55.435Z,41.47
2019-01-08T16:06:24.725Z,42.37
2019-01-08T16:08:53.915Z,40.70
2019-01-08T16:11:23.171Z,40.13
2019-01-08T16:13:52.362Z,40.90
2019-01-08T16:16:21.668Z,46.30
2019-01-08T16:18:50.942Z,41.27
2019-01-08T16:21:20.152Z,43.63
2019-01-08T16:23:49.346Z,38.60
2019-01-08T16:26:18.564Z,41.80
2019-01-08T16:28:48.863Z,43.63
2019-01-08T16:31:18.228Z,36.27
2019-01-08T16:33:47.580Z,39.53
2019-01-08T16:36:19.662Z,37.40
2019-01-08T16:38:49.111Z,36.57
2019-01-08T16:41:18.519Z,34.77
2019-01-08T16:43:47.884Z,35.47
2019-01-08T16:46:17.646Z,46.17
2019-01-08T16:48:47.287Z,42.67
2019-01-08T16:51:16.789Z,45.93
2019-01-08T16:53:46.191Z,42.07
2019-01-08T16:56:15.896Z,44.33
2019-01-08T16:58:45.300Z,44.90
2019-01-08T17:01:14.929Z,42.23
2019-01-08T17:03:44.329Z,42.13
2019-01-08T17:06:13.662Z,44.73
2019-01-08T17:08:43.179Z,45.70
2019-01-08T17:11:12.544Z,43.97
2019-01-08T17:13:42.033Z,47.27
2019-01-08T17:16:11.419Z,46.93
2019-01-08T17:18:59.598Z,45.80
2019-01-08T17:21:29.085Z,54.57
2019-01-08T17:23:58.798Z,61.30
2019-01-08T17:26:28.172Z,72.73
2019-01-08T17:29:00.775Z,76.27
2019-01-08T17:31:30.161Z,69.47
2019-01-08T17:33:59.601Z,66.07
2019-01-08T17:36:29.003Z,73.57
2019-01-08T17:39:01.480Z,66.33
2019-01-08T17:41:31.022Z,70.20
2019-01-08T17:44:00.535Z,78.00
2019-01-08T17:46:30.133Z,77.37
2019-01-08T17:48:59.542Z,74.67
2019-01-08T17:51:29.060Z,77.67
2019-01-08T17:53:58.503Z,77.13
2019-01-08T17:56:28.265Z,69.77
2019-01-08T17:59:25.748Z,55.70
2019-01-08T18:02:03.159Z,54.33
2019-01-08T18:04:32.636Z,53.30
2019-01-08T18:07:02.117Z,64.77
2019-01-08T18:09:39.460Z,69.53
2019-01-08T18:12:10.550Z,58.83
2019-01-08T18:14:40.700Z,52.80
2019-01-08T18:17:15.503Z,43.97
2019-01-08T18:19:45.271Z,43.63
2019-01-08T18:22:15.819Z,45.13
2019-01-08T18:24:45.141Z,42.70
2019-01-08T18:27:14.665Z,39.87
2019-01-08T18:29:44.002Z,77.67
2019-01-08T18:32:13.408Z,109.93
2019-01-08T18:34:42.795Z,108.53
2019-01-08T18:37:12.235Z,60.30
2019-01-08T18:39:41.746Z,59.73
2019-01-08T18:42:11.405Z,69.60
2019-01-08T18:44:40.982Z,58.83
2019-01-08T18:47:10.388Z,51.50
2019-01-08T18:49:39.991Z,48.57
2019-01-08T18:52:09.509Z,47.70
2019-01-08T18:54:38.868Z,56.23
2019-01-08T18:57:08.247Z,61.03
2019-01-08T18:59:40.511Z,53.20
2019-01-08T19:02:09.885Z,48.67
2019-01-08T19:04:39.295Z,42.33
2019-01-08T19:07:08.657Z,41.83
2019-01-08T19:09:39.938Z,46.97
2019-01-08T19:12:17.897Z,50.57
2019-01-08T19:14:47.301Z,46.13
2019-01-08T19:17:16.704Z,40.53
2019-01-08T19:19:46.092Z,43.03
2019-01-08T19:22:15.750Z,47.40
2019-01-08T19:24:45.103Z,47.13
2019-01-08T19:27:14.447Z,44.20
2019-01-08T19:29:43.752Z,45.03
2019-01-08T19:32:13.223Z,40.93
2019-01-08T19:34:42.491Z,39.67
2019-01-08T19:37:11.854Z,34.13
2019-01-08T19:39:41.342Z,38.10
2019-01-08T19:42:10.810Z,38.73
2019-01-08T19:44:40.208Z,39.10
2019-01-08T19:47:09.616Z,38.23
2019-01-08T19:49:39.235Z,36.00
2019-01-08T19:52:08.755Z,34.60
2019-01-08T19:54:38.177Z,37.63
2019-01-08T19:57:07.505Z,37.13
2019-01-08T19:59:36.906Z,39.37
2019-01-08T20:02:06.459Z,43.60
2019-01-08T20:04:35.837Z,44.37
2019-01-08T20:07:05.519Z,45.93
2019-01-08T20:09:35.027Z,41.97
2019-01-08T20:12:04.611Z,40.27
2019-01-08T20:14:34.703Z,41.47
2019-01-08T20:17:04.421Z,40.27
2019-01-08T20:19:34.097Z,41.83
2019-01-08T20:22:03.726Z,42.33
2019-01-08T20:24:33.489Z,42.93
2019-01-08T20:27:03.142Z,41.40
2019-01-08T20:29:32.811Z,40.17
2019-01-08T20:32:02.747Z,41.60
2019-01-08T20:34:32.313Z,41.73
2019-01-08T20:37:18.714Z,39.60
2019-01-08T20:39:48.203Z,45.10
2019-01-08T20:42:17.941Z,46.97
2019-01-08T20:44:47.349Z,46.97
2019-01-08T20:47:16.685Z,55.90
2019-01-08T20:49:48.299Z,63.37
2019-01-08T20:52:17.846Z,57.10
2019-01-08T20:54:47.387Z,55.50
2019-01-08T20:57:17.100Z,50.43
2019-01-08T20:59:46.541Z,53.13
2019-01-08T21:02:16.087Z,64.27
2019-01-08T21:04:45.592Z,58.20
2019-01-08T21:07:17.454Z,60.60
2019-01-08T21:09:46.920Z,67.53
2019-01-08T21:12:16.648Z,63.50
2019-01-08T21:14:46.179Z,60.87
2019-01-08T21:17:15.618Z,57.50
2019-01-08T21:19:45.281Z,55.30
2019-01-08T21:22:14.851Z,55.67
2019-01-08T21:24:44.514Z,62.40
2019-01-08T21:27:14.462Z,65.27
2019-01-08T21:29:44.079Z,62.20
2019-01-08T21:32:13.940Z,62.03
2019-01-08T21:34:44.529Z,71.57
2019-01-08T21:37:14.324Z,74.73
2019-01-08T21:39:43.847Z,73.23
2019-01-08T21:42:13.526Z,72.23
2019-01-08T21:44:42.960Z,65.37
2019-01-08T21:47:12.434Z,55.53
2019-01-08T21:49:42.244Z,62.77
2019-01-08T21:52:11.724Z,58.17
2019-01-08T21:54:41.066Z,61.60
2019-01-08T21:57:10.511Z,63.13
2019-01-08T21:59:39.869Z,57.93
2019-01-08T22:02:09.815Z,61.13
2019-01-08T22:04:39.361Z,61.93
2019-01-08T22:07:08.712Z,65.17
2019-01-08T22:09:40.713Z,63.63
2019-01-08T22:12:10.267Z,59.30
2019-01-08T22:14:39.916Z,63.63
2019-01-08T22:17:09.289Z,65.07
2019-01-08T22:19:38.691Z,67.30
2019-01-08T22:22:08.043Z,66.90
2019-01-08T22:24:37.399Z,67.33
2019-01-08T22:27:06.843Z,67.83
2019-01-08T22:29:36.209Z,81.43
2019-01-08T22:32:05.991Z,75.30
2019-01-08T22:34:35.448Z,85.73
2019-01-08T22:37:04.799Z,84.90
2019-01-08T22:39:34.119Z,72.57
2019-01-08T22:42:03.841Z,74.07
2019-01-08T22:44:33.290Z,73.27
2019-01-08T22:47:02.895Z,72.63
2019-01-08T22:49:32.283Z,64.53
2019-01-08T22:52:01.703Z,67.83
2019-01-08T22:54:31.210Z,69.83
2019-01-08T22:57:00.681Z,66.43
2019-01-08T22:59:31.492Z,63.70
2019-01-08T23:02:01.098Z,56.27
2019-01-08T23:04:30.557Z,53.23
2019-01-08T23:07:00.122Z,51.53
2019-01-08T23:09:30.137Z,51.63
2019-01-08T23:11:59.869Z,47.33
2019-01-08T23:14:29.567Z,48.27
2019-01-08T23:16:59.029Z,47.73
2019-01-08T23:19:28.651Z,51.23
2019-01-08T23:21:58.211Z,51.37
2019-01-08T23:24:27.711Z,49.43
2019-01-08T23:26:57.201Z,49.83
2019-01-08T23:29:26.871Z,55.07
2019-01-08T23:31:56.367Z,58.97
2019-01-08T23:34:25.905Z,59.13
2019-01-08T23:36:55.237Z,56.70
2019-01-08T23:39:24.782Z,54.50
2019-01-08T23:41:54.158Z,56.97
2019-01-08T23:44:23.573Z,53.80
2019-01-08T23:46:52.962Z,49.77
2019-01-08T23:49:22.323Z,50.10
2019-01-08T23:52:03.720Z,45.00
2019-01-08T23:54:36.214Z,42.27
2019-01-08T23:57:06.540Z,45.40
2019-01-08T23:59:35.973Z,44.10
